Time;durP1;ratioP1;P1;durP2;ratioP2;P2;SDS_P1;SDS_P2;PMS_P1;PMS_P2;Temp;Humidity;BMP_temperature;BMP_pressure;BME280_temperature;BME280_humidity;BME280_pressure;Samples;Min_cycle;Max_cycle;Signal;HPM_P1;HPM_P2
2023/09/17 00:00:56;;;;;;;16.52;13.43;;;;;;;-140.66;100.00;55571.53;5061418;28;20025;-74
2023/09/17 00:04:40;;;;;;;20.00;14.13;;;;;;;-140.66;100.00;55571.53;5045815;28;20029;-74
2023/09/17 00:08:25;;;;;;;23.40;14.60;;;;;;;-140.66;100.00;55571.53;5056429;28;20064;-73
2023/09/17 00:12:09;;;;;;;19.83;14.13;;;;;;;-140.66;100.00;55571.53;5055381;28;20086;-74
2023/09/17 00:15:54;;;;;;;18.27;13.07;;;;;;;-140.66;100.00;55571.53;5054435;28;20039;-74
2023/09/17 00:19:38;;;;;;;17.77;13.57;;;;;;;-140.66;100.00;55571.53;5039665;28;20370;-73
2023/09/17 00:23:22;;;;;;;18.38;14.13;;;;;;;-140.66;100.00;55571.53;5054060;28;20025;-73
2023/09/17 00:27:06;;;;;;;18.23;13.75;;;;;;;-140.66;100.00;55571.53;5055628;28;20025;-74
2023/09/17 00:30:51;;;;;;;19.38;14.10;;;;;;;-140.66;100.00;55571.53;5057770;28;20174;-73
2023/09/17 00:34:35;;;;;;;23.67;14.40;;;;;;;-140.66;100.00;55571.53;5058557;28;20025;-74
2023/09/17 00:38:20;;;;;;;20.42;13.82;;;;;;;-140.66;100.00;55571.53;5044432;28;20071;-74
2023/09/17 00:42:04;;;;;;;17.27;13.40;;;;;;;-140.66;100.00;55571.53;5058070;28;20033;-74
2023/09/17 00:45:48;;;;;;;19.88;14.18;;;;;;;-140.66;100.00;55571.53;5044091;28;20051;-74
2023/09/17 00:49:33;;;;;;;17.52;13.98;;;;;;;-140.66;100.00;55571.53;5057356;28;20035;-73
2023/09/17 00:53:18;;;;;;;17.48;13.43;;;;;;;-140.66;100.00;55571.53;5058651;28;20395;-74
2023/09/17 00:57:03;;;;;;;21.40;13.75;;;;;;;-140.66;100.00;55571.53;5042752;28;20116;-74
2023/09/17 01:00:47;;;;;;;22.50;13.50;;;;;;;-140.66;100.00;55571.53;5042064;28;20025;-72
2023/09/17 01:04:32;;;;;;;18.08;13.48;;;;;;;-140.66;100.00;55571.53;5057603;28;20098;-73
2023/09/17 01:08:22;;;;;;;16.80;12.52;;;;;;;-140.66;100.00;55571.53;5043168;28;20041;-73
2023/09/17 01:12:07;;;;;;;22.38;13.25;;;;;;;-140.66;100.00;55571.53;5043245;28;20052;-71
2023/09/17 01:15:52;;;;;;;17.90;12.85;;;;;;;-140.66;100.00;55571.53;5057411;28;20154;-72
2023/09/17 01:19:37;;;;;;;17.95;12.70;;;;;;;-140.66;100.00;55571.53;5057101;28;20041;-73
2023/09/17 01:23:36;;;;;;;19.25;13.00;;;;;;;-140.66;100.00;55571.53;5056568;28;20112;-74
2023/09/17 01:27:25;;;;;;;17.98;12.35;;;;;;;-140.66;100.00;55571.53;5056376;28;20037;-74
2023/09/17 01:31:10;;;;;;;17.02;12.68;;;;;;;-140.66;100.00;55571.53;5057577;28;20051;-74
2023/09/17 01:34:54;;;;;;;16.80;12.80;;;;;;;-140.66;100.00;55571.53;5043180;28;20025;-73
2023/09/17 01:38:46;;;;;;;16.55;12.10;;;;;;;-140.66;100.00;55571.53;5040049;28;20336;-74
2023/09/17 01:42:34;;;;;;;15.20;11.35;;;;;;;-140.66;100.00;55571.53;5042316;28;20047;-74
2023/09/17 01:46:20;;;;;;;14.75;11.55;;;;;;;-140.66;100.00;55571.53;5055762;28;20037;-74
2023/09/17 01:50:06;;;;;;;15.00;11.35;;;;;;;-140.66;100.00;55571.53;5055689;28;20029;-74
2023/09/17 01:53:51;;;;;;;15.30;10.98;;;;;;;-140.66;100.00;55571.53;5041939;28;20115;-74
2023/09/17 01:57:36;;;;;;;22.70;11.73;;;;;;;-140.66;100.00;55571.53;5041667;28;20033;-74
2023/09/17 02:01:20;;;;;;;18.10;12.00;;;;;;;-140.66;100.00;55571.53;5055741;28;20363;-74
2023/09/17 02:05:04;;;;;;;17.48;11.90;;;;;;;-140.66;100.00;55571.53;5055664;28;20068;-74
2023/09/17 02:08:49;;;;;;;20.48;12.45;;;;;;;-140.66;100.00;55571.53;5055613;28;20105;-74
2023/09/17 02:12:34;;;;;;;16.63;12.20;;;;;;;-140.66;100.00;55571.53;5055326;28;20021;-74
2023/09/17 02:16:20;;;;;;;20.00;13.25;;;;;;;-140.66;100.00;55571.53;5056099;28;20081;-74
2023/09/17 02:20:10;;;;;;;23.05;12.70;;;;;;;-140.66;100.00;55571.53;5041800;28;20044;-72
2023/09/17 02:24:01;;;;;;;17.55;12.27;;;;;;;-140.66;100.00;55571.53;5055337;28;20119;-73
2023/09/17 02:27:46;;;;;;;17.73;12.85;;;;;;;-140.66;100.00;55571.53;5055073;28;20485;-73
2023/09/17 02:31:30;;;;;;;19.92;13.90;;;;;;;-140.66;100.00;55571.53;5040606;28;20024;-72
2023/09/17 02:35:15;;;;;;;18.20;12.82;;;;;;;-140.66;100.00;55571.53;5055239;28;20025;-73
2023/09/17 02:38:59;;;;;;;20.80;12.65;;;;;;;-140.66;100.00;55571.53;5039886;28;20067;-73
2023/09/17 02:42:44;;;;;;;17.13;12.45;;;;;;;-140.66;100.00;55571.53;5042168;28;20063;-72
2023/09/17 02:46:28;;;;;;;17.02;12.77;;;;;;;-140.66;100.00;55571.53;5049761;28;20055;-73
2023/09/17 02:50:12;;;;;;;16.60;11.85;;;;;;;-140.66;100.00;55571.53;5038388;28;20415;-73
2023/09/17 02:53:56;;;;;;;16.70;12.00;;;;;;;-140.66;100.00;55571.53;5042070;28;20040;-74
2023/09/17 02:57:41;;;;;;;19.90;12.88;;;;;;;-140.66;100.00;55571.53;5041455;28;20033;-73
2023/09/17 03:01:25;;;;;;;14.35;11.13;;;;;;;-140.66;100.00;55571.53;5055226;28;20414;-74
2023/09/17 03:05:10;;;;;;;17.88;12.07;;;;;;;-140.66;100.00;55571.53;5040126;28;20032;-73
2023/09/17 03:08:54;;;;;;;17.75;12.20;;;;;;;-140.66;100.00;55571.53;5053771;28;20363;-73
2023/09/17 03:12:39;;;;;;;16.95;12.60;;;;;;;-140.66;100.00;55571.53;5053874;28;20038;-73
2023/09/17 03:16:23;;;;;;;17.80;12.82;;;;;;;-140.66;100.00;55571.53;5040861;28;20040;-73
2023/09/17 03:20:13;;;;;;;18.70;12.43;;;;;;;-140.66;100.00;55571.53;5040147;28;20035;-73
2023/09/17 03:23:58;;;;;;;17.20;12.60;;;;;;;-140.66;100.00;55571.53;5054276;28;20064;-73
2023/09/17 03:27:43;;;;;;;17.27;13.45;;;;;;;-140.66;100.00;55571.53;5054586;28;20060;-73
2023/09/17 03:31:27;;;;;;;15.50;11.82;;;;;;;-140.66;100.00;55571.53;5053521;28;20040;-72
2023/09/17 03:35:11;;;;;;;17.08;11.52;;;;;;;-140.66;100.00;55571.53;5056089;28;20111;-73
2023/09/17 03:38:56;;;;;;;17.75;11.85;;;;;;;-140.66;100.00;55571.53;5041036;28;20036;-73
2023/09/17 03:42:41;;;;;;;16.33;11.05;;;;;;;-140.66;100.00;55571.53;5054259;28;20031;-74
2023/09/17 03:46:25;;;;;;;14.93;11.20;;;;;;;-140.66;100.00;55571.53;5054948;28;20374;-74
2023/09/17 03:50:13;;;;;;;17.40;12.60;;;;;;;-140.66;100.00;55571.53;5054479;28;20028;-74
2023/09/17 03:54:00;;;;;;;16.35;12.00;;;;;;;-140.66;100.00;55571.53;5042483;28;20029;-74
2023/09/17 03:57:45;;;;;;;16.23;11.55;;;;;;;-140.66;100.00;55571.53;5055038;28;20075;-73
2023/09/17 04:01:29;;;;;;;18.83;11.73;;;;;;;-140.66;100.00;55571.53;5055522;28;20025;-74
2023/09/17 04:05:14;;;;;;;17.60;11.52;;;;;;;-140.66;100.00;55571.53;5057463;28;20032;-73
2023/09/17 04:08:59;;;;;;;17.80;12.48;;;;;;;-140.66;100.00;55571.53;5057922;28;20540;-74
2023/09/17 04:12:43;;;;;;;20.38;13.18;;;;;;;-140.66;100.00;55571.53;5043474;28;20357;-73
2023/09/17 04:16:28;;;;;;;19.90;13.43;;;;;;;-140.66;100.00;55571.53;5044124;28;20082;-74
2023/09/17 04:20:14;;;;;;;19.23;13.45;;;;;;;-140.66;100.00;55571.53;5058266;28;20025;-73
2023/09/17 04:23:58;;;;;;;18.52;12.70;;;;;;;-140.66;100.00;55571.53;5057619;28;20371;-74
2023/09/17 04:27:44;;;;;;;18.77;12.63;;;;;;;-140.66;100.00;55571.53;5042021;28;20336;-73
2023/09/17 04:31:28;;;;;;;17.55;12.88;;;;;;;-140.66;100.00;55571.53;5044595;28;20414;-73
2023/09/17 04:35:15;;;;;;;18.80;13.48;;;;;;;-140.66;100.00;55571.53;5042853;28;20471;-73
2023/09/17 04:39:00;;;;;;;18.85;12.95;;;;;;;-140.66;100.00;55571.53;5057140;28;20047;-74
2023/09/17 04:42:45;;;;;;;17.85;12.23;;;;;;;-140.66;100.00;55571.53;5057667;28;20127;-73
2023/09/17 04:46:34;;;;;;;16.48;12.40;;;;;;;-140.66;100.00;55571.53;5044531;28;20166;-74
2023/09/17 04:50:19;;;;;;;21.33;11.75;;;;;;;-140.66;100.00;55571.53;5042814;28;20044;-74
2023/09/17 04:54:03;;;;;;;18.60;12.10;;;;;;;-140.66;100.00;55571.53;5057066;28;20039;-74
2023/09/17 04:57:48;;;;;;;15.80;11.70;;;;;;;-140.66;100.00;55571.53;5056610;28;20033;-74
2023/09/17 05:01:33;;;;;;;19.15;11.88;;;;;;;-140.66;100.00;55571.53;5057128;28;20029;-74
2023/09/17 05:05:19;;;;;;;15.85;11.90;;;;;;;-140.66;100.00;55571.53;5042014;28;20033;-74
2023/09/17 05:09:03;;;;;;;15.82;11.40;;;;;;;-140.66;100.00;55571.53;5058497;28;20134;-74
2023/09/17 05:12:47;;;;;;;16.88;11.55;;;;;;;-140.66;100.00;55571.53;5040567;28;20079;-74
2023/09/17 05:16:32;;;;;;;15.65;9.88;;;;;;;-140.66;100.00;55571.53;5042366;28;20024;-75
2023/09/17 05:20:18;;;;;;;13.68;10.63;;;;;;;-140.66;100.00;55571.53;5048868;28;20340;-74
2023/09/17 05:24:02;;;;;;;13.18;10.80;;;;;;;-140.66;100.00;55571.53;5056420;28;20056;-74
2023/09/17 05:27:46;;;;;;;12.93;9.73;;;;;;;-140.66;100.00;55571.53;5056435;28;20033;-74
2023/09/17 05:31:32;;;;;;;18.10;10.68;;;;;;;-140.66;100.00;55571.53;5056479;28;20417;-73
2023/09/17 05:35:16;;;;;;;15.43;10.88;;;;;;;-140.66;100.00;55571.53;5055969;28;20074;-75
2023/09/17 05:39:02;;;;;;;15.48;10.75;;;;;;;-140.66;100.00;55571.53;5056686;28;20063;-74
2023/09/17 05:42:46;;;;;;;19.13;11.43;;;;;;;-140.66;100.00;55571.53;5057120;28;20054;-75
2023/09/17 05:46:31;;;;;;;12.57;10.55;;;;;;;-140.66;100.00;55571.53;5055962;28;20348;-72
2023/09/17 05:50:17;;;;;;;15.68;10.55;;;;;;;-140.66;100.00;55571.53;5056141;28;20347;-74
2023/09/17 05:54:01;;;;;;;19.77;11.75;;;;;;;-140.66;100.00;55571.53;5042276;28;20116;-74
2023/09/17 05:57:45;;;;;;;18.80;10.98;;;;;;;-140.66;100.00;55571.53;5055082;28;20106;-74
2023/09/17 06:01:30;;;;;;;12.77;10.75;;;;;;;-140.66;100.00;55571.53;5040513;28;20024;-74
2023/09/17 06:05:15;;;;;;;12.65;10.20;;;;;;;-140.66;100.00;55571.53;5063534;28;20048;-74
2023/09/17 06:08:59;;;;;;;16.15;9.55;;;;;;;-140.66;100.00;55571.53;5058629;28;20489;-75
2023/09/17 06:12:43;;;;;;;11.90;9.52;;;;;;;-140.66;100.00;55571.53;5040863;28;20125;-73
2023/09/17 06:16:27;;;;;;;13.05;10.02;;;;;;;-140.66;100.00;55571.53;5055954;28;20402;-74
2023/09/17 06:20:12;;;;;;;15.05;10.95;;;;;;;-140.66;100.00;55571.53;5055382;28;20027;-73
2023/09/17 06:23:56;;;;;;;13.63;10.20;;;;;;;-140.66;100.00;55571.53;5060233;28;20029;-73
2023/09/17 06:27:40;;;;;;;14.82;10.70;;;;;;;-140.66;100.00;55571.53;5060839;28;20029;-74
2023/09/17 06:31:15;;;;;;;15.75;11.02;;;;;;;-140.66;100.00;55571.53;5055754;28;20107;-74
2023/09/17 06:35:00;;;;;;;13.85;11.02;;;;;;;-140.66;100.00;55571.53;5055176;28;20083;-74
2023/09/17 06:38:46;;;;;;;20.20;12.10;;;;;;;-140.66;100.00;55571.53;5055075;28;20024;-75
2023/09/17 06:42:30;;;;;;;14.77;11.05;;;;;;;-140.66;100.00;55571.53;5055504;28;20112;-74
2023/09/17 06:46:15;;;;;;;17.83;11.02;;;;;;;-140.66;100.00;55571.53;5054385;28;20044;-74
2023/09/17 06:49:59;;;;;;;15.77;11.43;;;;;;;-140.66;100.00;55571.53;5055350;28;20100;-73
2023/09/17 06:53:43;;;;;;;15.13;11.48;;;;;;;-140.66;100.00;55571.53;5054851;28;20029;-75
2023/09/17 06:57:28;;;;;;;17.98;11.77;;;;;;;-140.66;100.00;55571.53;5053572;28;20077;-74
2023/09/17 07:01:12;;;;;;;15.63;12.43;;;;;;;-140.66;100.00;55571.53;5055564;28;20025;-74
2023/09/17 07:05:00;;;;;;;16.70;13.00;;;;;;;-140.66;100.00;55571.53;5054369;28;20362;-74
2023/09/17 07:08:44;;;;;;;18.92;12.32;;;;;;;-140.66;100.00;55571.53;5054460;28;20044;-75
2023/09/17 07:12:37;;;;;;;15.52;11.98;;;;;;;-140.66;100.00;55571.53;5054511;28;20063;-75
2023/09/17 07:16:23;;;;;;;18.63;12.57;;;;;;;-140.66;100.00;55571.53;5054921;28;20032;-74
2023/09/17 07:20:08;;;;;;;16.10;12.55;;;;;;;-140.66;100.00;55571.53;5054540;28;20375;-73
2023/09/17 07:23:52;;;;;;;17.42;12.95;;;;;;;-140.66;100.00;55571.53;5040016;28;20072;-74
2023/09/17 07:27:36;;;;;;;22.02;12.38;;;;;;;-140.66;100.00;55571.53;5054220;28;20028;-74
2023/09/17 07:31:20;;;;;;;15.60;12.27;;;;;;;-140.66;100.00;55571.53;5054718;28;20459;-75
2023/09/17 07:35:05;;;;;;;14.10;11.52;;;;;;;-140.66;100.00;55571.53;5053915;28;20102;-75
2023/09/17 07:38:49;;;;;;;15.77;12.20;;;;;;;-140.66;100.00;55571.53;5055490;28;20098;-74
2023/09/17 07:42:34;;;;;;;17.35;11.80;;;;;;;-140.66;100.00;55571.53;5054159;28;20102;-74
2023/09/17 07:46:18;;;;;;;16.98;11.18;;;;;;;-140.66;100.00;55571.53;5053922;28;20021;-75
2023/09/17 07:50:02;;;;;;;15.15;11.30;;;;;;;-140.66;100.00;55571.53;5054290;28;20123;-76
2023/09/17 07:53:47;;;;;;;16.08;10.93;;;;;;;-140.66;100.00;55571.53;5054452;28;20111;-76
2023/09/17 07:57:31;;;;;;;13.90;10.52;;;;;;;-140.66;100.00;55571.53;5053314;28;20029;-75
2023/09/17 08:01:15;;;;;;;16.20;10.98;;;;;;;-140.66;100.00;55571.53;5054545;28;20036;-76
2023/09/17 08:05:00;;;;;;;14.80;10.55;;;;;;;-140.66;100.00;55571.53;5039074;28;20120;-76
2023/09/17 08:08:45;;;;;;;15.90;10.93;;;;;;;-140.66;100.00;55571.53;5053658;28;20065;-72
2023/09/17 08:12:32;;;;;;;14.98;10.10;;;;;;;-140.66;100.00;55571.53;5053807;28;20056;-72
2023/09/17 08:16:17;;;;;;;12.13;9.52;;;;;;;-140.66;100.00;55571.53;5053859;28;20021;-71
2023/09/17 08:20:02;;;;;;;14.98;10.52;;;;;;;-140.66;100.00;55571.53;5039734;28;20127;-72
2023/09/17 08:23:49;;;;;;;15.95;10.25;;;;;;;-140.66;100.00;55571.53;5052986;28;20116;-73
2023/09/17 08:27:34;;;;;;;15.25;10.88;;;;;;;-140.66;100.00;55571.53;5038360;28;20102;-73
2023/09/17 08:31:18;;;;;;;12.30;10.10;;;;;;;-140.66;100.00;55571.53;5039183;28;20028;-71
2023/09/17 08:35:03;;;;;;;16.70;10.63;;;;;;;-140.66;100.00;55571.53;5053507;28;20037;-72
2023/09/17 08:38:50;;;;;;;13.65;10.52;;;;;;;-140.66;100.00;55571.53;5054721;28;20032;-71
2023/09/17 08:42:36;;;;;;;13.63;10.32;;;;;;;-140.66;100.00;55571.53;5053497;28;20032;-72
2023/09/17 08:46:22;;;;;;;13.07;10.00;;;;;;;-140.66;100.00;55571.53;5039201;28;20021;-74
2023/09/17 08:50:09;;;;;;;12.10;10.30;;;;;;;-140.66;100.00;55571.53;5051068;28;20039;-74
2023/09/17 08:53:55;;;;;;;12.23;9.77;;;;;;;-140.66;100.00;55571.53;5058358;28;20134;-74
2023/09/17 08:57:42;;;;;;;11.32;9.27;;;;;;;-140.66;100.00;55571.53;5059112;28;20028;-72
2023/09/17 09:01:27;;;;;;;10.82;9.02;;;;;;;-140.66;100.00;55571.53;5056323;28;20039;-73
2023/09/17 09:05:16;;;;;;;12.10;9.20;;;;;;;-140.66;100.00;55571.53;5042433;28;20036;-73
2023/09/17 09:09:02;;;;;;;10.00;8.93;;;;;;;-140.66;100.00;55571.53;5055442;28;20041;-72
2023/09/17 09:12:26;;;;;;;11.30;8.98;;;;;;;-140.66;100.00;55571.53;5041257;28;20056;-71
2023/09/17 09:15:24;;;;;;;11.50;8.10;;;;;;;-140.66;100.00;55571.53;5057009;28;20028;-71
2023/09/17 09:19:09;;;;;;;10.13;8.40;;;;;;;-140.66;100.00;55571.53;5056436;28;20083;-72
2023/09/17 09:22:14;;;;;;;10.48;7.75;;;;;;;-140.66;100.00;55571.53;5041765;28;20443;-70
2023/09/17 09:25:34;;;;;;;11.93;7.78;;;;;;;-140.66;100.00;55571.53;5056320;28;20517;-71
2023/09/17 09:28:43;;;;;;;12.05;8.07;;;;;;;-140.66;100.00;55571.53;5055264;28;20036;-73
2023/09/17 09:32:28;;;;;;;10.98;8.25;;;;;;;-140.66;100.00;55571.53;5056454;28;20171;-72
2023/09/17 09:36:11;;;;;;;11.82;7.70;;;;;;;-140.66;100.00;55571.53;5055831;28;20108;-72
2023/09/17 09:39:50;;;;;;;11.07;8.20;;;;;;;-140.66;100.00;55571.53;5055865;28;20029;-72
2023/09/17 09:43:31;;;;;;;11.50;8.25;;;;;;;-140.66;100.00;55571.53;5055318;28;20043;-73
2023/09/17 09:46:19;;;;;;;10.90;8.63;;;;;;;-140.66;100.00;55571.53;5047827;28;20057;-70
2023/09/17 09:49:39;;;;;;;12.65;8.30;;;;;;;-140.66;100.00;55571.53;5055152;28;20048;-72
2023/09/17 09:53:20;;;;;;;11.85;8.68;;;;;;;-140.66;100.00;55571.53;5054946;28;20032;-72
2023/09/17 09:57:07;;;;;;;15.27;8.75;;;;;;;-140.66;100.00;55571.53;5055423;28;20103;-72
2023/09/17 10:00:48;;;;;;;12.63;9.18;;;;;;;-140.66;100.00;55571.53;5040816;28;20024;-73
2023/09/17 10:03:50;;;;;;;11.25;8.48;;;;;;;-140.66;100.00;55571.53;5054154;28;20394;-72
2023/09/17 10:07:25;;;;;;;10.32;8.52;;;;;;;-140.66;100.00;55571.53;5040660;28;20048;-72
2023/09/17 10:11:10;;;;;;;11.40;8.35;;;;;;;-140.66;100.00;55571.53;5055684;28;20025;-72
2023/09/17 10:15:04;;;;;;;14.32;8.48;;;;;;;-140.66;100.00;55571.53;5056029;28;20371;-72
2023/09/17 10:18:51;;;;;;;10.85;8.10;;;;;;;-140.66;100.00;55571.53;5055243;28;20090;-73
2023/09/17 10:22:38;;;;;;;9.57;7.90;;;;;;;-140.66;100.00;55571.53;5054694;28;20107;-73
2023/09/17 10:26:23;;;;;;;10.43;8.48;;;;;;;-140.66;100.00;55571.53;5053590;28;20032;-73
2023/09/17 10:30:15;;;;;;;12.40;7.90;;;;;;;-140.66;100.00;55571.53;5054407;28;20111;-72
2023/09/17 10:34:02;;;;;;;17.15;7.85;;;;;;;-140.66;100.00;55571.53;5056074;28;20519;-72
2023/09/17 10:37:47;;;;;;;12.45;8.32;;;;;;;-140.66;100.00;55571.53;5055785;28;20362;-73
2023/09/17 10:41:32;;;;;;;11.18;7.90;;;;;;;-140.66;100.00;55571.53;5053791;28;20116;-74
2023/09/17 10:45:19;;;;;;;12.02;8.35;;;;;;;-140.66;100.00;55571.53;5053998;28;20039;-72
2023/09/17 10:49:04;;;;;;;15.13;7.97;;;;;;;-140.66;100.00;55571.53;5055322;28;20108;-73
2023/09/17 10:52:49;;;;;;;13.05;8.20;;;;;;;-140.66;100.00;55571.53;5054078;28;20032;-72
2023/09/17 10:56:07;;;;;;;12.13;8.20;;;;;;;-140.66;100.00;55571.53;5053124;28;20195;-72
2023/09/17 10:59:51;;;;;;;10.18;7.80;;;;;;;-140.66;100.00;55571.53;5053820;28;20052;-73
2023/09/17 11:03:19;;;;;;;10.18;7.28;;;;;;;-140.66;100.00;55571.53;5053996;28;20086;-75
2023/09/17 11:06:37;;;;;;;9.40;7.47;;;;;;;-140.66;100.00;55571.53;5068510;28;20475;-74
2023/09/17 11:09:24;;;;;;;13.27;7.60;;;;;;;-140.66;100.00;55571.53;5073976;28;20033;-74
2023/09/17 11:12:12;;;;;;;9.63;7.13;;;;;;;-140.66;100.00;55571.53;5059376;28;20031;-76
2023/09/17 11:14:58;;;;;;;11.02;7.60;;;;;;;-140.66;100.00;55571.53;5074540;28;20025;-74
2023/09/17 11:17:47;;;;;;;12.43;7.70;;;;;;;-140.66;100.00;55571.53;5059412;28;20100;-76
2023/09/17 11:20:36;;;;;;;12.25;7.35;;;;;;;-140.66;100.00;55571.53;5073651;28;20036;-76
2023/09/17 11:23:53;;;;;;;9.60;7.53;;;;;;;-140.66;100.00;55571.53;5073841;28;20036;-75
2023/09/17 11:26:56;;;;;;;10.02;7.20;;;;;;;-140.66;100.00;55571.53;5073930;28;20488;-77
2023/09/17 11:30:58;;;;;;;10.90;6.93;;;;;;;-140.66;100.00;55571.53;5074906;28;20033;-76
2023/09/17 11:34:43;;;;;;;14.88;6.90;;;;;;;-140.66;100.00;55571.53;5059740;28;20028;-76
2023/09/17 11:38:29;;;;;;;10.07;6.82;;;;;;;-140.66;100.00;55571.53;5073832;28;20055;-76
2023/09/17 11:42:23;;;;;;;8.98;7.30;;;;;;;-140.66;100.00;55571.53;5058876;28;20081;-76
2023/09/17 11:46:08;;;;;;;9.60;7.15;;;;;;;-140.66;100.00;55571.53;5073525;28;20036;-77
2023/09/17 11:49:52;;;;;;;8.25;6.57;;;;;;;-140.66;100.00;55571.53;5059390;28;20121;-76
2023/09/17 11:53:48;;;;;;;8.13;6.60;;;;;;;-140.66;100.00;55571.53;5059479;28;20390;-77
2023/09/17 11:57:33;;;;;;;9.45;6.97;;;;;;;-140.66;100.00;55571.53;5073135;28;20095;-77
2023/09/17 12:01:30;;;;;;;9.90;6.63;;;;;;;-140.66;100.00;55571.53;5059131;28;20123;-69
2023/09/17 12:05:15;;;;;;;8.82;6.32;;;;;;;-140.66;100.00;55571.53;5058940;28;20093;-70
2023/09/17 12:09:20;;;;;;;12.15;6.30;;;;;;;-140.66;100.00;55571.53;5053627;28;20047;-69
2023/09/17 12:13:05;;;;;;;8.18;5.93;;;;;;;-140.66;100.00;55571.53;5052663;28;20060;-71
2023/09/17 12:16:50;;;;;;;7.05;6.22;;;;;;;-140.66;100.00;55571.53;5052214;28;20021;-71
2023/09/17 12:20:57;;;;;;;8.80;6.28;;;;;;;-140.66;100.00;55571.53;5038780;28;20126;-70
2023/09/17 12:25:18;;;;;;;8.75;6.45;;;;;;;-140.66;100.00;55571.53;5042221;28;20112;-71
2023/09/17 12:29:10;;;;;;;12.18;6.30;;;;;;;-140.66;100.00;55571.53;5057342;28;20060;-75
2023/09/17 12:32:54;;;;;;;8.48;6.38;;;;;;;-140.66;100.00;55571.53;5057025;28;20147;-75
2023/09/17 12:36:13;;;;;;;7.63;5.55;;;;;;;-140.66;100.00;55571.53;5043729;28;20079;-75
2023/09/17 12:39:12;;;;;;;9.85;6.20;;;;;;;-140.66;100.00;55571.53;5057725;28;20029;-76
2023/09/17 12:42:57;;;;;;;11.45;6.05;;;;;;;-140.66;100.00;55571.53;5056975;28;20033;-75
2023/09/17 12:46:41;;;;;;;9.05;5.93;;;;;;;-140.66;100.00;55571.53;5057076;28;20056;-73
2023/09/17 12:50:28;;;;;;;13.60;6.68;;;;;;;-140.66;100.00;55571.53;5057332;28;20033;-71
2023/09/17 12:54:13;;;;;;;7.72;5.80;;;;;;;-140.66;100.00;55571.53;5048499;28;20032;-72
2023/09/17 12:57:02;;;;;;;11.70;5.32;;;;;;;-140.66;100.00;55571.53;5056543;28;20017;-72
2023/09/17 13:00:48;;;;;;;7.55;5.38;;;;;;;-140.66;100.00;55571.53;5056658;28;20025;-73
2023/09/17 13:04:33;;;;;;;7.85;5.63;;;;;;;-140.66;100.00;55571.53;5055740;28;20032;-71
2023/09/17 13:08:18;;;;;;;11.23;5.28;;;;;;;-140.66;100.00;55571.53;5042879;28;20132;-71
2023/09/17 13:12:02;;;;;;;7.72;5.60;;;;;;;-140.66;100.00;55571.53;5043551;28;20362;-72
2023/09/17 13:15:48;;;;;;;10.65;5.25;;;;;;;-140.66;100.00;55571.53;5057053;28;20367;-72
2023/09/17 13:19:32;;;;;;;8.57;5.60;;;;;;;-140.66;100.00;55571.53;5041275;28;20525;-71
2023/09/17 13:23:17;;;;;;;11.40;5.50;;;;;;;-140.66;100.00;55571.53;5056454;28;20051;-73
2023/09/17 13:27:05;;;;;;;9.18;5.50;;;;;;;-140.66;100.00;55571.53;5039363;28;20086;-73
2023/09/17 13:30:15;;;;;;;8.60;5.22;;;;;;;-140.66;100.00;55571.53;5041682;28;20039;-74
2023/09/17 13:34:00;;;;;;;11.65;5.47;;;;;;;-140.66;100.00;55571.53;5044057;28;20028;-73
2023/09/17 13:37:44;;;;;;;9.02;5.30;;;;;;;-140.66;100.00;55571.53;5041929;28;20344;-72
2023/09/17 13:40:30;;;;;;;6.35;4.78;;;;;;;-140.66;100.00;55571.53;5055745;28;20025;-72
2023/09/17 13:43:16;;;;;;;8.15;5.28;;;;;;;-140.66;100.00;55571.53;5056593;28;20029;-72
2023/09/17 13:47:01;;;;;;;7.68;5.07;;;;;;;-140.66;100.00;55571.53;5036624;28;20033;-72
2023/09/17 13:49:52;;;;;;;8.52;4.82;;;;;;;-140.66;100.00;55571.53;5036706;28;20120;-73
2023/09/17 13:53:36;;;;;;;7.22;4.85;;;;;;;-140.66;100.00;55571.53;5047342;28;20040;-76
2023/09/17 13:56:22;;;;;;;6.90;4.95;;;;;;;-140.66;100.00;55571.53;5039963;28;20031;-70
2023/09/17 13:59:08;;;;;;;7.55;5.10;;;;;;;-140.66;100.00;55571.53;5054526;28;20021;-75
2023/09/17 14:01:53;;;;;;;9.23;4.90;;;;;;;-140.66;100.00;55571.53;5054979;28;20512;-73
2023/09/17 14:04:40;;;;;;;6.35;5.25;;;;;;;-140.66;100.00;55571.53;5057228;28;20064;-73
2023/09/17 14:07:26;;;;;;;10.07;4.90;;;;;;;-140.66;100.00;55571.53;5074632;28;20128;-76
2023/09/17 14:10:11;;;;;;;10.73;4.88;;;;;;;-140.66;100.00;55571.53;5075336;28;20032;-73
2023/09/17 14:13:55;;;;;;;7.93;4.75;;;;;;;-140.66;100.00;55571.53;5074921;28;20468;-72
2023/09/17 14:17:40;;;;;;;5.53;4.93;;;;;;;-140.66;100.00;55571.53;5075740;28;20025;-73
2023/09/17 14:21:24;;;;;;;8.82;5.53;;;;;;;-140.66;100.00;55571.53;5075635;28;20351;-74
2023/09/17 14:25:09;;;;;;;8.18;4.88;;;;;;;-140.66;100.00;55571.53;5074846;28;20422;-72
2023/09/17 14:28:54;;;;;;;8.27;4.47;;;;;;;-140.66;100.00;55571.53;5075120;28;20036;-73
2023/09/17 14:32:38;;;;;;;8.85;5.03;;;;;;;-140.66;100.00;55571.53;5075264;28;20161;-73
2023/09/17 14:36:23;;;;;;;23.02;5.63;;;;;;;-140.66;100.00;55571.53;5075358;28;20070;-73
2023/09/17 14:40:08;;;;;;;9.65;4.90;;;;;;;-140.66;100.00;55571.53;5073707;28;20374;-72
2023/09/17 14:43:52;;;;;;;10.15;5.07;;;;;;;-140.66;100.00;55571.53;5074593;28;20111;-74
2023/09/17 14:47:38;;;;;;;8.60;4.93;;;;;;;-140.66;100.00;55571.53;5074939;28;20025;-74
2023/09/17 14:51:22;;;;;;;7.88;4.63;;;;;;;-140.66;100.00;55571.53;5073640;28;20107;-73
2023/09/17 14:55:07;;;;;;;13.30;5.10;;;;;;;-140.66;100.00;55571.53;5073769;28;20017;-73
2023/09/17 14:58:52;;;;;;;11.43;4.90;;;;;;;-140.66;100.00;55571.53;5053338;28;20186;-73
2023/09/17 15:02:36;;;;;;;8.43;4.70;;;;;;;-140.66;100.00;55571.53;5053884;28;20344;-74
2023/09/17 15:06:20;;;;;;;6.50;4.43;;;;;;;-140.66;100.00;55571.53;5045612;28;20084;-73
2023/09/17 15:10:05;;;;;;;8.00;4.35;;;;;;;-140.66;100.00;55571.53;5048423;28;20044;-73
2023/09/17 15:13:49;;;;;;;7.53;4.72;;;;;;;-140.66;100.00;55571.53;5039059;28;20059;-72
2023/09/17 15:17:35;;;;;;;11.32;4.38;;;;;;;-140.66;100.00;55571.53;5039655;28;20458;-73
2023/09/17 15:21:19;;;;;;;8.38;4.10;;;;;;;-140.66;100.00;55571.53;5054265;28;20060;-71
2023/09/17 15:25:04;;;;;;;6.55;4.07;;;;;;;-140.66;100.00;55571.53;5051716;28;20021;-71
2023/09/17 15:28:49;;;;;;;12.02;4.30;;;;;;;-140.66;100.00;55571.53;5033287;28;20112;-73
2023/09/17 15:32:35;;;;;;;6.22;4.20;;;;;;;-140.66;100.00;55571.53;5034295;28;20033;-72
2023/09/17 15:36:21;;;;;;;5.40;4.00;;;;;;;-140.66;100.00;55571.53;5045108;28;20024;-73
2023/09/17 15:40:06;;;;;;;4.88;3.83;;;;;;;-140.66;100.00;55571.53;5073978;28;20042;-74
2023/09/17 15:43:50;;;;;;;8.57;4.10;;;;;;;-140.66;100.00;55571.53;5020004;28;20025;-75
2023/09/17 15:47:36;;;;;;;7.43;3.88;;;;;;;-140.66;100.00;55571.53;5033264;28;20029;-76
2023/09/17 15:51:20;;;;;;;6.18;3.97;;;;;;;-140.66;100.00;55571.53;5032420;28;20673;-72
2023/09/17 15:55:05;;;;;;;7.55;4.00;;;;;;;-140.66;100.00;55571.53;5052930;28;20025;-74
2023/09/17 15:58:49;;;;;;;5.15;4.13;;;;;;;-140.66;100.00;55571.53;5059461;28;20450;-73
2023/09/17 16:02:33;;;;;;;5.18;3.75;;;;;;;-140.66;100.00;55571.53;5060190;28;20033;-74
2023/09/17 16:06:23;;;;;;;4.72;4.10;;;;;;;-140.66;100.00;55571.53;5068265;28;20059;-73
2023/09/17 16:10:07;;;;;;;6.88;4.05;;;;;;;-140.66;100.00;55571.53;5057661;28;20103;-73
2023/09/17 16:13:51;;;;;;;11.00;4.70;;;;;;;-140.66;100.00;55571.53;5059599;28;20020;-75
2023/09/17 16:17:37;;;;;;;6.88;4.10;;;;;;;-140.66;100.00;55571.53;5065094;28;20071;-74
2023/09/17 16:21:22;;;;;;;5.07;3.70;;;;;;;-140.66;100.00;55571.53;5079438;28;20070;-70
2023/09/17 16:25:08;;;;;;;6.40;3.97;;;;;;;-140.66;100.00;55571.53;5073756;28;20523;-71